createdAt,value
2022-07-30T00:01:34.219Z,22.50
2022-07-30T00:04:24.507Z,22.50
2022-07-30T00:07:13.376Z,22.50
2022-07-30T00:10:03.322Z,22.40
2022-07-30T00:12:52.148Z,22.40
2022-07-30T00:15:40.638Z,22.30
2022-07-30T00:18:29.135Z,22.30
2022-07-30T00:21:20.254Z,22.20
2022-07-30T00:24:25.022Z,22.10
2022-07-30T00:27:15.092Z,22.10
2022-07-30T00:30:03.759Z,22.00
2022-07-30T00:32:52.288Z,22.00
2022-07-30T00:35:40.779Z,22.00
2022-07-30T00:38:29.414Z,21.90
2022-07-30T00:41:17.978Z,21.90
2022-07-30T00:44:07.924Z,21.80
2022-07-30T00:46:56.492Z,21.80
2022-07-30T00:49:45.010Z,21.70
2022-07-30T00:52:33.503Z,21.60
2022-07-30T00:55:22.458Z,21.60
2022-07-30T00:58:10.916Z,21.60
2022-07-30T01:01:01.086Z,21.50
2022-07-30T01:03:50.187Z,21.40
2022-07-30T01:06:39.440Z,21.40
2022-07-30T01:09:27.956Z,21.40
2022-07-30T01:12:18.036Z,21.30
2022-07-30T01:15:08.387Z,21.30
2022-07-30T01:18:01.042Z,21.20
2022-07-30T01:20:53.311Z,21.20
2022-07-30T01:23:45.216Z,21.10
2022-07-30T01:26:35.140Z,21.00
2022-07-30T01:29:23.966Z,21.00
2022-07-30T01:32:12.919Z,20.90
2022-07-30T01:35:01.683Z,20.90
2022-07-30T01:37:50.253Z,20.80
2022-07-30T01:40:38.969Z,20.80
2022-07-30T01:43:28.876Z,20.80
2022-07-30T01:46:17.834Z,20.70
2022-07-30T01:49:09.344Z,20.70
2022-07-30T01:51:57.971Z,20.60
2022-07-30T01:54:47.949Z,20.60
2022-07-30T01:57:36.867Z,20.50
2022-07-30T02:00:26.740Z,20.50
2022-07-30T02:03:15.447Z,20.50
2022-07-30T02:06:08.899Z,20.40
2022-07-30T02:09:00.445Z,20.30
2022-07-30T02:12:09.419Z,20.30
2022-07-30T02:15:05.286Z,20.30
2022-07-30T02:18:00.663Z,20.20
2022-07-30T02:21:00.039Z,20.20
2022-07-30T02:23:51.157Z,20.20
2022-07-30T02:26:42.073Z,20.20
2022-07-30T02:29:31.279Z,20.10
2022-07-30T02:32:22.020Z,20.10
2022-07-30T02:35:16.371Z,20.00
2022-07-30T02:38:05.569Z,20.00
2022-07-30T02:40:54.521Z,20.00
2022-07-30T02:43:43.094Z,20.00
2022-07-30T02:46:32.278Z,20.00
2022-07-30T02:49:41.021Z,20.00
2022-07-30T02:52:31.387Z,20.00
2022-07-30T02:55:19.943Z,20.00
2022-07-30T02:58:08.558Z,20.00
2022-07-30T03:00:57.376Z,20.00
2022-07-30T03:03:46.085Z,20.00
2022-07-30T03:06:34.686Z,19.90
2022-07-30T03:09:24.848Z,19.90
2022-07-30T03:12:13.995Z,19.90
2022-07-30T03:15:02.543Z,19.90
2022-07-30T03:17:53.938Z,19.90
2022-07-30T03:20:46.247Z,19.80
2022-07-30T03:23:38.301Z,19.80
2022-07-30T03:26:28.180Z,19.70
2022-07-30T03:29:16.932Z,19.70
2022-07-30T03:32:10.513Z,19.60
2022-07-30T03:35:06.314Z,19.60
2022-07-30T03:37:57.311Z,19.60
2022-07-30T03:40:46.586Z,19.50
2022-07-30T03:43:36.914Z,19.50
2022-07-30T03:46:26.467Z,19.50
2022-07-30T03:49:15.173Z,19.40
2022-07-30T03:52:08.242Z,19.40
2022-07-30T03:54:56.999Z,19.40
2022-07-30T03:58:04.478Z,19.30
2022-07-30T04:00:55.552Z,19.30
2022-07-30T04:03:44.097Z,19.30
2022-07-30T04:06:33.467Z,19.20
2022-07-30T04:09:23.575Z,19.20
2022-07-30T04:12:13.862Z,19.20
2022-07-30T04:15:02.569Z,19.20
2022-07-30T04:18:12.404Z,19.20
2022-07-30T04:21:00.955Z,19.20
2022-07-30T04:24:04.793Z,19.10
2022-07-30T04:26:55.399Z,19.10
2022-07-30T04:29:43.892Z,19.10
2022-07-30T04:32:33.026Z,19.10
2022-07-30T04:35:50.971Z,19.10
2022-07-30T04:38:53.978Z,19.10
2022-07-30T04:41:49.474Z,19.10
2022-07-30T04:44:57.008Z,19.10
2022-07-30T04:47:48.406Z,19.10
2022-07-30T04:50:51.729Z,19.10
2022-07-30T04:53:41.167Z,19.10
2022-07-30T04:56:31.899Z,19.00
2022-07-30T04:59:20.483Z,19.00
2022-07-30T05:02:09.108Z,19.00
2022-07-30T05:04:58.339Z,19.10
2022-07-30T05:07:49.972Z,19.10
2022-07-30T05:10:39.063Z,19.10
2022-07-30T05:13:38.029Z,19.20
2022-07-30T05:16:29.690Z,19.20
2022-07-30T05:19:20.718Z,19.20
2022-07-30T05:22:09.734Z,19.20
2022-07-30T05:24:59.801Z,19.20
2022-07-30T05:27:48.343Z,19.30
2022-07-30T05:30:38.295Z,19.40
2022-07-30T05:33:40.929Z,19.70
2022-07-30T05:36:33.584Z,20.00
2022-07-30T05:39:22.663Z,20.40
2022-07-30T05:42:15.098Z,20.70
2022-07-30T05:45:13.072Z,21.00
2022-07-30T05:48:03.072Z,21.20
2022-07-30T05:50:51.895Z,21.30
2022-07-30T05:53:41.025Z,21.40
2022-07-30T05:56:32.331Z,21.60
2022-07-30T05:59:36.552Z,21.80
2022-07-30T06:02:31.954Z,22.10
2022-07-30T06:05:49.374Z,22.40
2022-07-30T06:08:37.975Z,22.70
2022-07-30T06:11:26.850Z,23.10
2022-07-30T06:14:15.312Z,23.40
2022-07-30T06:17:05.575Z,23.80
2022-07-30T06:20:21.454Z,24.20
2022-07-30T06:23:33.169Z,24.70
2022-07-30T06:26:44.266Z,25.10
2022-07-30T06:29:33.404Z,25.60
2022-07-30T06:32:24.176Z,25.90
2022-07-30T06:35:12.743Z,26.30
2022-07-30T06:38:07.732Z,26.70
2022-07-30T06:41:08.689Z,26.90
2022-07-30T06:44:19.372Z,27.30
2022-07-30T06:47:29.531Z,27.60
2022-07-30T06:50:20.292Z,28.00
2022-07-30T06:53:08.938Z,28.20
2022-07-30T06:56:16.451Z,28.40
2022-07-30T06:59:16.041Z,28.60
2022-07-30T07:02:26.848Z,28.80
2022-07-30T07:05:30.528Z,28.90
2022-07-30T07:08:19.927Z,28.90
2022-07-30T07:11:15.551Z,28.90
2022-07-30T07:14:12.200Z,29.00
2022-07-30T07:17:01.341Z,29.10
2022-07-30T07:20:29.967Z,29.20
2022-07-30T07:23:24.705Z,29.30
2022-07-30T07:26:15.918Z,29.40
2022-07-30T07:29:05.381Z,29.60
2022-07-30T07:32:06.805Z,29.70
2022-07-30T07:34:58.872Z,29.80
2022-07-30T07:37:49.430Z,30.00
2022-07-30T07:40:43.332Z,30.20
2022-07-30T07:43:31.870Z,30.30
2022-07-30T07:46:33.650Z,30.30
2022-07-30T07:49:24.445Z,30.20
2022-07-30T07:52:13.898Z,30.20
2022-07-30T07:55:03.746Z,30.00
2022-07-30T07:57:54.744Z,29.90
2022-07-30T08:00:43.358Z,29.80
2022-07-30T08:03:31.929Z,29.70
2022-07-30T08:06:23.190Z,29.60
2022-07-30T08:09:43.670Z,29.50
2022-07-30T08:12:57.869Z,29.50
2022-07-30T08:16:05.325Z,29.50
2022-07-30T08:19:32.239Z,29.50
2022-07-30T08:22:37.500Z,29.50
2022-07-30T08:25:26.027Z,29.40
2022-07-30T08:28:35.293Z,29.40
2022-07-30T08:31:25.273Z,29.40
2022-07-30T08:34:14.382Z,29.40
2022-07-30T08:37:03.077Z,29.30
2022-07-30T08:39:51.640Z,29.30
2022-07-30T08:42:43.252Z,29.10
2022-07-30T08:45:34.964Z,29.10
2022-07-30T08:49:00.622Z,29.00
2022-07-30T08:51:58.123Z,29.00
2022-07-30T08:55:15.769Z,29.10
2022-07-30T08:58:04.866Z,29.20
2022-07-30T09:03:50.506Z,29.50
2022-07-30T09:06:40.860Z,29.70
2022-07-30T09:09:29.648Z,29.80
2022-07-30T09:12:37.663Z,29.90
2022-07-30T09:15:28.395Z,30.00
2022-07-30T09:18:27.866Z,30.20
2022-07-30T09:21:18.940Z,30.40
2022-07-30T09:24:12.399Z,30.60
2022-07-30T09:27:45.645Z,30.60
2022-07-30T09:30:54.550Z,30.70
2022-07-30T09:34:27.536Z,30.70
2022-07-30T09:37:21.920Z,30.70
2022-07-30T09:40:39.461Z,30.60
2022-07-30T09:43:53.764Z,30.40
2022-07-30T09:46:53.443Z,30.30
2022-07-30T09:49:49.065Z,30.30
2022-07-30T09:52:43.968Z,30.20
2022-07-30T09:55:41.417Z,30.20
2022-07-30T09:58:50.055Z,30.20
2022-07-30T10:01:55.054Z,30.30
2022-07-30T10:05:14.080Z,30.40
2022-07-30T10:08:09.248Z,30.40
2022-07-30T10:11:08.540Z,30.30
2022-07-30T10:14:00.219Z,30.30
2022-07-30T10:16:48.877Z,30.20
2022-07-30T10:19:39.885Z,30.20
2022-07-30T10:23:10.080Z,30.20
2022-07-30T10:26:23.038Z,30.20
2022-07-30T10:29:33.672Z,30.30
2022-07-30T10:32:30.465Z,30.30
2022-07-30T10:35:34.403Z,30.40
2022-07-30T10:38:32.384Z,30.60
2022-07-30T10:41:42.904Z,30.60
2022-07-30T10:45:17.345Z,30.70
2022-07-30T10:48:06.506Z,30.70
2022-07-30T10:50:56.940Z,30.70
2022-07-30T10:53:47.980Z,30.80
2022-07-30T10:56:37.051Z,30.90
2022-07-30T10:59:28.943Z,31.00
2022-07-30T11:02:18.003Z,31.10
2022-07-30T11:05:43.753Z,31.10
2022-07-30T11:08:42.680Z,31.10
2022-07-30T11:12:02.140Z,31.10
2022-07-30T11:15:07.205Z,31.10
2022-07-30T11:18:12.973Z,31.10
2022-07-30T11:21:22.581Z,31.10
2022-07-30T11:24:43.338Z,31.10
2022-07-30T11:27:45.670Z,31.20
2022-07-30T11:30:36.056Z,31.40
2022-07-30T11:33:32.177Z,31.50
2022-07-30T11:36:21.739Z,31.60
2022-07-30T11:39:12.883Z,31.70
2022-07-30T11:42:34.280Z,31.80
2022-07-30T11:45:30.546Z,31.80
2022-07-30T11:48:20.872Z,31.80
2022-07-30T11:51:09.718Z,31.80
2022-07-30T11:54:03.210Z,31.70
2022-07-30T11:56:52.792Z,31.50
2022-07-30T11:59:54.700Z,31.30
2022-07-30T12:02:45.258Z,31.20
2022-07-30T12:05:33.796Z,31.10
2022-07-30T12:08:33.397Z,31.10
2022-07-30T12:11:25.015Z,31.20
2022-07-30T12:14:14.052Z,31.30
2022-07-30T12:17:02.746Z,31.40
2022-07-30T12:19:52.806Z,31.50
2022-07-30T12:22:41.294Z,31.70
2022-07-30T12:25:30.192Z,31.80
2022-07-30T12:28:22.546Z,31.90
2022-07-30T12:31:11.104Z,32.00
2022-07-30T12:34:00.649Z,32.00
2022-07-30T12:36:50.573Z,31.90
2022-07-30T12:39:40.556Z,31.90
2022-07-30T12:42:29.304Z,31.90
2022-07-30T12:45:28.381Z,31.90
2022-07-30T12:48:16.843Z,32.00
2022-07-30T12:51:07.239Z,32.10
2022-07-30T12:53:57.681Z,32.30
2022-07-30T12:56:59.320Z,32.30
2022-07-30T12:59:48.254Z,32.40
2022-07-30T13:02:37.389Z,32.40
2022-07-30T13:05:48.695Z,32.40
2022-07-30T13:08:51.861Z,32.30
2022-07-30T13:11:48.968Z,32.30
2022-07-30T13:14:37.931Z,32.20
2022-07-30T13:17:26.416Z,32.30
2022-07-30T13:20:15.456Z,32.30
2022-07-30T13:23:03.988Z,32.30
2022-07-30T13:25:52.628Z,32.20
2022-07-30T13:28:42.506Z,32.10
2022-07-30T13:31:42.759Z,32.10
2022-07-30T13:34:31.979Z,32.00
2022-07-30T13:37:20.444Z,31.90
2022-07-30T13:40:12.543Z,31.90
2022-07-30T13:43:01.037Z,31.80
2022-07-30T13:45:51.301Z,31.70
2022-07-30T13:48:40.171Z,31.60
2022-07-30T13:51:28.665Z,31.60
2022-07-30T13:54:17.123Z,31.50
2022-07-30T13:57:06.125Z,31.50
2022-07-30T13:59:54.603Z,31.50
2022-07-30T14:02:44.514Z,31.50
2022-07-30T14:05:33.211Z,31.60
2022-07-30T14:08:21.965Z,31.60
2022-07-30T14:11:10.488Z,31.60
2022-07-30T14:13:58.961Z,31.70
2022-07-30T14:16:50.667Z,31.70
2022-07-30T14:19:43.511Z,31.80
2022-07-30T14:22:32.016Z,31.80
2022-07-30T14:25:20.512Z,31.90
2022-07-30T14:28:09.064Z,31.90
2022-07-30T14:30:57.560Z,32.10
2022-07-30T14:33:46.075Z,32.10
2022-07-30T14:36:37.289Z,32.20
2022-07-30T14:39:25.990Z,32.30
2022-07-30T14:42:14.467Z,32.40
2022-07-30T14:45:03.841Z,32.50
2022-07-30T14:47:52.367Z,32.50
2022-07-30T14:51:03.356Z,32.50
2022-07-30T14:53:51.513Z,32.60
2022-07-30T14:56:40.238Z,32.60
2022-07-30T14:59:28.737Z,32.60
2022-07-30T15:02:17.221Z,32.60
2022-07-30T15:05:07.020Z,32.60
2022-07-30T15:07:55.513Z,32.60
2022-07-30T15:10:45.351Z,32.60
2022-07-30T15:13:33.837Z,32.60
2022-07-30T15:16:24.237Z,32.60
2022-07-30T15:19:13.649Z,32.60
2022-07-30T15:22:03.336Z,32.60
2022-07-30T15:24:52.029Z,32.60
2022-07-30T15:27:41.802Z,32.50
2022-07-30T15:30:30.270Z,32.50
2022-07-30T15:33:18.984Z,32.40
2022-07-30T15:36:07.638Z,32.40
2022-07-30T15:38:56.086Z,32.40
2022-07-30T15:41:44.894Z,32.30
2022-07-30T15:44:34.857Z,32.20
2022-07-30T15:47:24.026Z,32.20
2022-07-30T15:50:12.596Z,32.20
2022-07-30T15:53:01.150Z,32.20
2022-07-30T15:55:50.966Z,32.20
2022-07-30T15:58:43.383Z,32.20
2022-07-30T16:01:34.288Z,32.20
2022-07-30T16:04:31.749Z,32.20
2022-07-30T16:07:20.568Z,32.30
2022-07-30T16:10:10.080Z,32.30
2022-07-30T16:12:58.641Z,32.30
2022-07-30T16:15:47.086Z,32.30
2022-07-30T16:18:36.881Z,32.30
2022-07-30T16:21:25.311Z,32.30
2022-07-30T16:24:13.754Z,32.30
2022-07-30T16:27:02.237Z,32.30
2022-07-30T16:29:50.749Z,32.20
2022-07-30T16:32:39.218Z,32.20
2022-07-30T16:35:29.041Z,32.20
2022-07-30T16:38:17.582Z,32.10
2022-07-30T16:41:07.647Z,32.10
2022-07-30T16:43:58.867Z,32.10
2022-07-30T16:46:48.384Z,32.00
2022-07-30T16:49:38.677Z,32.00
2022-07-30T16:52:28.493Z,32.00
2022-07-30T16:55:16.935Z,32.00
2022-07-30T16:58:05.397Z,32.00
2022-07-30T17:00:53.985Z,31.90
2022-07-30T17:03:42.538Z,31.90
2022-07-30T17:06:31.005Z,31.90
2022-07-30T17:09:20.846Z,31.90
2022-07-30T17:12:12.450Z,31.90
2022-07-30T17:15:01.023Z,31.80
2022-07-30T17:17:49.510Z,31.80
2022-07-30T17:20:39.234Z,31.80
2022-07-30T17:23:27.677Z,31.70
2022-07-30T17:26:17.528Z,31.60
2022-07-30T17:29:08.659Z,31.60
2022-07-30T17:31:59.415Z,31.60
2022-07-30T17:34:48.111Z,31.60
2022-07-30T17:37:36.964Z,31.60
2022-07-30T17:40:28.884Z,31.50
2022-07-30T17:43:21.163Z,31.50
2022-07-30T17:46:09.554Z,31.50
2022-07-30T17:48:58.138Z,31.50
2022-07-30T17:51:48.400Z,31.40
2022-07-30T17:54:36.945Z,31.40
2022-07-30T17:57:25.397Z,31.40
2022-07-30T18:00:16.166Z,31.30
2022-07-30T18:03:04.766Z,31.30
2022-07-30T18:05:53.805Z,31.20
2022-07-30T18:08:42.273Z,31.10
2022-07-30T18:11:30.685Z,31.10
2022-07-30T18:14:19.263Z,31.00
2022-07-30T18:17:14.084Z,30.90
2022-07-30T18:20:02.959Z,30.70
2022-07-30T18:22:51.853Z,30.50
2022-07-30T18:25:52.952Z,30.30
2022-07-30T18:28:43.344Z,30.10
2022-07-30T18:31:31.829Z,29.90
2022-07-30T18:34:21.681Z,29.60
2022-07-30T18:37:10.172Z,29.40
2022-07-30T18:39:58.659Z,29.20
2022-07-30T18:42:49.639Z,28.90
2022-07-30T18:45:38.088Z,28.70
2022-07-30T18:48:27.651Z,28.50
2022-07-30T18:51:18.641Z,28.30
2022-07-30T18:54:07.309Z,28.00
2022-07-30T18:56:55.846Z,27.80
2022-07-30T18:59:44.367Z,27.60
2022-07-30T19:02:32.970Z,27.40
2022-07-30T19:05:21.920Z,27.20
2022-07-30T19:08:11.739Z,27.00
2022-07-30T19:11:01.009Z,26.80
2022-07-30T19:13:49.507Z,26.60
2022-07-30T19:16:38.085Z,26.40
2022-07-30T19:19:26.601Z,26.20
2022-07-30T19:22:15.636Z,26.00
2022-07-30T19:25:06.600Z,25.90
2022-07-30T19:27:55.062Z,25.80
2022-07-30T19:30:43.514Z,25.60
2022-07-30T19:33:32.028Z,25.50
2022-07-30T19:36:21.018Z,25.40
2022-07-30T19:39:15.982Z,25.30
2022-07-30T19:42:11.730Z,25.20
2022-07-30T19:45:01.387Z,25.20
2022-07-30T19:47:52.984Z,25.10
2022-07-30T19:50:43.846Z,25.00
2022-07-30T19:53:34.634Z,24.90
2022-07-30T19:56:23.556Z,24.80
2022-07-30T19:59:15.148Z,24.70
2022-07-30T20:02:04.010Z,24.60
2022-07-30T20:04:52.684Z,24.50
2022-07-30T20:07:41.210Z,24.40
2022-07-30T20:10:33.543Z,24.40
2022-07-30T20:13:22.061Z,24.30
2022-07-30T20:16:12.371Z,24.30
2022-07-30T20:19:03.133Z,24.20
2022-07-30T20:21:56.625Z,24.10
2022-07-30T20:24:47.888Z,24.10
2022-07-30T20:27:38.718Z,24.00
2022-07-30T20:30:27.547Z,24.00
2022-07-30T20:33:17.830Z,23.90
2022-07-30T20:36:24.418Z,23.90
2022-07-30T20:39:13.384Z,23.80
2022-07-30T20:42:11.904Z,23.80
2022-07-30T20:45:00.869Z,23.70
2022-07-30T20:47:52.228Z,23.70
2022-07-30T20:50:43.683Z,23.60
2022-07-30T20:53:36.092Z,23.60
2022-07-30T20:56:25.516Z,23.60
2022-07-30T20:59:14.016Z,23.50
2022-07-30T21:02:03.757Z,23.50
2022-07-30T21:04:56.681Z,23.50
2022-07-30T21:10:57.903Z,23.50
2022-07-30T21:13:48.778Z,23.50
2022-07-30T21:16:38.251Z,23.50
2022-07-30T21:19:29.121Z,23.50
2022-07-30T21:22:18.656Z,23.60
2022-07-30T21:25:12.050Z,23.50
2022-07-30T21:28:00.530Z,23.50
2022-07-30T21:30:51.482Z,23.50
2022-07-30T21:33:40.135Z,23.50
2022-07-30T21:36:28.742Z,23.50
2022-07-30T21:39:17.607Z,23.50
2022-07-30T21:42:07.824Z,23.50
2022-07-30T21:44:56.275Z,23.50
2022-07-30T21:47:47.656Z,23.40
2022-07-30T21:50:37.958Z,23.40
2022-07-30T21:53:44.529Z,23.40
2022-07-30T21:56:33.885Z,23.40
2022-07-30T21:59:23.725Z,23.30
2022-07-30T22:02:15.870Z,23.20
2022-07-30T22:05:08.111Z,23.30
2022-07-30T22:07:57.189Z,23.20
2022-07-30T22:10:47.104Z,23.20
2022-07-30T22:13:51.246Z,23.10
2022-07-30T22:16:46.048Z,23.10
2022-07-30T22:19:35.023Z,23.20
2022-07-30T22:22:27.499Z,23.00
2022-07-30T22:25:16.891Z,23.00
2022-07-30T22:28:05.870Z,23.00
2022-07-30T22:30:56.323Z,22.90
2022-07-30T22:33:46.177Z,22.90
2022-07-30T22:36:38.316Z,22.80
2022-07-30T22:39:31.934Z,22.70
2022-07-30T22:42:36.564Z,22.70
2022-07-30T22:45:49.154Z,22.70
2022-07-30T22:48:38.451Z,22.60
2022-07-30T22:52:02.859Z,22.60
2022-07-30T22:54:36.797Z,22.70
2022-07-30T22:57:25.270Z,22.60
2022-07-30T23:00:27.212Z,22.60
2022-07-30T23:03:17.028Z,22.60
2022-07-30T23:06:05.506Z,22.60
2022-07-30T23:08:56.441Z,22.60
2022-07-30T23:11:45.313Z,22.60
2022-07-30T23:12:31.356Z,23.50
2022-07-30T23:14:33.752Z,22.60
2022-07-30T23:17:22.217Z,22.60
2022-07-30T23:20:13.668Z,22.70
2022-07-30T23:23:02.981Z,22.70
2022-07-30T23:25:52.771Z,22.70
2022-07-30T23:28:41.515Z,22.70
2022-07-30T23:31:29.985Z,22.80
2022-07-30T23:34:18.551Z,22.80
2022-07-30T23:37:09.683Z,22.80
2022-07-30T23:40:01.441Z,22.90
2022-07-30T23:42:51.845Z,22.90
2022-07-30T23:45:40.426Z,22.90
2022-07-30T23:48:29.143Z,22.90
2022-07-30T23:51:17.711Z,22.90
2022-07-30T23:54:06.332Z,22.90
2022-07-30T23:56:56.184Z,22.90
2022-07-30T23:59:46.059Z,22.90
